Historyczne dane pomiarowe

Dodano dane terminowe – wersja testowa.

Dane z okresu 1951-2019

Wersja bazy: 1.34 [2019-03-16, lista zmian], aktualizacja planowana na 2019-04-15

Dane meteo z obszaru Polski uzyskane na podstawie danych udostępnionych przez Instytut Meteorologii i Gospodarki Wodnej – Państwowy Instytut Badawczy.

 

Wybierz Datę:    

       

TemperaturaWilgotnośćWiatrCiśnienieOpadyŚniegCzas trwania zjawisk
 Stacja t tx tn tng RH VA  wxwx mslp ppp RRR   cm mm wxwxwxwxwxwxwx
1979-03-18 -4.7 -1.7 -5.9- 84.8- 8.0 2.7---- 0.1-- 14---------
1979-03-19 -7.0 -4.3 -8.4- 84.3- 7.3 1.7---- 0.6-- 14---------
1979-03-20 -5.0 -2.3-10.6- 84.3- 7.7 2.3---- 0.0-- 14---------
1979-03-21 -0.7 1.0 -4.5- 92.8- 8.0 3.7---- 1.2-- 14---------
1979-03-22 -0.2 4.7 -4.0- 82.8- 5.0 3.3---- 0.0-- 15---------
1979-03-23 0.3 6.2 -4.2- 81.5- 3.0 4.0---- 0.0-- 13---------
1979-03-24 0.8 3.0 -1.4- 82.0- 7.3 4.7---- 0.2-- 10---------
1979-03-25 1.6 6.8 -3.2- 76.5- 4.3 3.0---- 0.2-- 8---------
1979-03-26 3.4 6.9 1.8- 87.8- 8.0 2.7---- 3.7------------
1979-03-27 5.0 9.6 2.8- 79.5- 6.3 2.7---- 0.0------------
1979-03-28 3.0 4.9 1.0- 95.8- 8.0 2.3---- 0.0------------
1979-03-29 3.3 4.5 2.3- 96.0- 8.0 3.7---- 4.1------------
1979-03-30 4.0 9.4 0.2- 93.5- 6.7 2.0---- 3.7------------
1979-03-31 1.7 4.6 0.9- 92.8- 8.0 3.7---- 4.5------------
1979-04-01 1.0 1.6 0.9- 91.8- 8.0 3.7---- 3.6------------
1979-04-02 3.6 7.3 0.9- 87.3- 8.0 4.0---- 1.3------------
1979-04-03 6.0 11.1 -0.6- 77.8- 7.3 3.3---- 0.0------------
1979-04-04 6.0 10.8 2.5- 81.8- 6.3 1.7---- 0.9------------
1979-04-05 3.8 7.3 1.8- 83.8- 8.0 2.7---- 0.0------------
1979-04-06 5.3 8.9 3.0- 79.0- 8.0 2.3---- 0.0------------
1979-04-07 4.1 6.5 1.1- 75.3- 8.0 4.7---- 0.0------------
1979-04-08 4.3 8.6 0.7- 66.5- 2.7 2.7---- 0.0------------
1979-04-09 3.4 10.8 -2.3- 75.3- 0.3 2.3---- 0.0------------
1979-04-10 4.8 12.5 -2.9- 63.5- 0.3 2.3---- 0.0------------
1979-04-11 6.9 14.8 -2.7- 52.3- 3.0 2.3---- 0.0------------
1979-04-12 7.2 14.9 -2.6- 60.0- 0.3 2.7---- 0.0------------
1979-04-13 7.9 17.1 -2.9- 67.5- 4.3 1.7---- 0.0------------
1979-04-14 8.7 16.4 0.7- 69.0- 4.0 2.0---- 0.0------------
1979-04-15 3.0 9.7 -1.0- 78.0- 2.7 2.0---- 0.0------------
1979-04-16 -0.3 5.8 -8.8- 62.5- 2.7 2.7---- 0.0------------
227.4 ms

 

Źródłem pochodzenia danych jest Instytut Meteorologii i Gospodarki Wodnej – Państwowy Instytut Badawczy. Dane Instytutu Meteorologii i Gospodarki Wodnej – Państwowego Instytutu Badawczego zostały przetworzone.

Dane źródłowe można odnaleźć na stronie https://dane.imgw.pl